Pajares, Spain
Current Conditions -  °F | °C
As of 11:30 PM on Friday 24 Oct 2014 (Local Time) from LEAS Reporting Station
Clear Clear  
Wind Chill: 59°   Ceiling: Unl
Heat Index: 59°   Visibility: 6mi
Dew Point: 52°   Wind: 2mph
Humidity: 77%   Direction: NA
Pressure: 30.12"   Gusts: NA
Location:  43.57°N, 5.69°W
Report Text: LEAS 242130Z VRB02KT CAVOK 15/11 Q1020 NOSIG
Loading
Personal Weather Stations






























Interactive Weather Map
Tropical Storm Tracking
New forecast layout! Learn more

10-Day Weather Forecast

Advertisements
Track Severe Weather on mobile